Time;durP1;ratioP1;P1;durP2;ratioP2;P2;SDS_P1;SDS_P2;PMS_P1;PMS_P2;Temp;Humidity;BMP_temperature;BMP_pressure;BME280_temperature;BME280_humidity;BME280_pressure;Samples;Min_cycle;Max_cycle;Signal;HPM_P1;HPM_P2
2023/10/07 00:02:30;;;;;;;1.00;0.50;;;;;;;30.50;27.64;100743.72;4965510;28;20058;-75
2023/10/07 00:05:00;;;;;;;2.55;0.70;;;;;;;30.46;27.75;100747.50;4964107;28;20065;-77
2023/10/07 00:07:31;;;;;;;2.25;0.70;;;;;;;30.38;27.24;100739.91;4969514;28;20786;-77
2023/10/07 00:10:04;;;;;;;5.05;0.90;;;;;;;30.37;27.58;100747.97;4967411;28;20079;-76
2023/10/07 00:12:35;;;;;;;3.85;0.82;;;;;;;30.30;28.59;100742.09;4965279;28;20061;-77
2023/10/07 00:15:04;;;;;;;2.10;0.80;;;;;;;30.20;28.20;100733.69;4965803;28;20046;-78
2023/10/07 00:17:39;;;;;;;2.42;0.80;;;;;;;30.17;28.91;100746.31;4964040;28;20051;-79
2023/10/07 00:20:09;;;;;;;1.75;0.65;;;;;;;30.10;28.05;100731.59;4971709;28;20138;-77
2023/10/07 00:22:41;;;;;;;3.72;0.60;;;;;;;30.00;28.15;100729.41;4966036;28;20062;-77
2023/10/07 00:25:12;;;;;;;3.80;0.70;;;;;;;29.93;28.29;100732.47;4962414;28;20040;-78
2023/10/07 00:27:42;;;;;;;3.63;0.60;;;;;;;29.82;28.52;100731.22;4967250;28;20497;-77
2023/10/07 00:30:16;;;;;;;5.43;0.90;;;;;;;29.73;29.10;100726.34;4963281;28;20060;-76
2023/10/07 00:32:47;;;;;;;1.50;0.60;;;;;;;29.58;28.82;100717.31;4966135;28;20410;-76
2023/10/07 00:35:16;;;;;;;1.15;0.60;;;;;;;29.53;29.08;100719.34;4965184;28;20050;-77
2023/10/07 00:37:45;;;;;;;1.45;0.80;;;;;;;29.43;29.11;100724.25;4964629;28;20662;-77
2023/10/07 00:40:30;;;;;;;4.35;0.70;;;;;;;29.32;29.29;100721.28;4966414;28;20060;-79
2023/10/07 00:43:06;;;;;;;0.50;0.50;;;;;;;29.22;29.35;100720.84;4965340;28;20061;-78
2023/10/07 00:45:35;;;;;;;1.30;0.60;;;;;;;29.10;29.93;100717.94;4963259;28;20047;-77
2023/10/07 00:48:11;;;;;;;1.45;0.70;;;;;;;29.05;29.28;100723.44;4971137;28;20054;-77
2023/10/07 00:50:42;;;;;;;1.95;0.50;;;;;;;28.98;29.60;100728.22;4966963;28;20244;-79
2023/10/07 00:53:12;;;;;;;1.45;0.57;;;;;;;28.90;29.87;100718.84;4971290;28;20051;-77
2023/10/07 00:55:46;;;;;;;10.48;1.20;;;;;;;28.85;30.17;100721.72;4970286;28;20572;-75
2023/10/07 00:58:20;;;;;;;2.85;0.65;;;;;;;28.77;30.02;100714.13;4971420;28;20053;-77
2023/10/07 01:00:49;;;;;;;1.98;0.75;;;;;;;28.70;30.55;100723.34;4960829;28;20050;-77
2023/10/07 01:03:23;;;;;;;2.90;0.65;;;;;;;28.59;30.03;100714.97;4957515;28;20420;-78
2023/10/07 01:06:09;;;;;;;1.00;0.70;;;;;;;28.54;31.06;100717.84;4960557;28;20059;-77
2023/10/07 01:08:45;;;;;;;1.65;0.70;;;;;;;28.48;30.75;100720.78;4967351;28;20050;-77
2023/10/07 01:11:26;;;;;;;4.32;0.80;;;;;;;28.38;30.63;100722.09;4967081;28;20098;-76
2023/10/07 01:13:59;;;;;;;2.55;0.52;;;;;;;28.30;30.79;100717.13;4963301;28;20050;-77
2023/10/07 01:16:33;;;;;;;1.88;0.88;;;;;;;28.22;30.60;100715.72;4966877;28;20101;-78
2023/10/07 01:19:18;;;;;;;2.30;0.70;;;;;;;28.14;31.11;100714.28;4966958;28;20181;-77
2023/10/07 01:21:54;;;;;;;0.75;0.52;;;;;;;28.04;31.63;100712.97;4960789;28;20061;-76
2023/10/07 01:24:34;;;;;;;2.03;1.00;;;;;;;27.97;31.24;100712.38;4957808;28;20063;-77
2023/10/07 01:27:16;;;;;;;1.10;0.57;;;;;;;27.90;32.09;100710.91;4967735;28;20137;-76
2023/10/07 01:29:44;;;;;;;2.75;0.63;;;;;;;27.82;31.40;100701.50;4964729;28;20043;-79
2023/10/07 01:32:16;;;;;;;1.10;0.50;;;;;;;27.73;31.36;100703.63;4966553;28;20046;-77
2023/10/07 01:34:52;;;;;;;2.07;0.70;;;;;;;27.65;31.50;100705.75;4960397;28;20050;-76
2023/10/07 01:37:30;;;;;;;1.02;0.50;;;;;;;27.57;31.66;100697.22;4967834;28;20045;-78
2023/10/07 01:40:08;;;;;;;3.75;0.90;;;;;;;27.50;32.00;100701.06;4965568;28;20062;-74
2023/10/07 01:42:37;;;;;;;2.63;0.73;;;;;;;27.42;32.03;100692.53;4961458;28;20059;-72
2023/10/07 01:45:19;;;;;;;1.92;0.70;;;;;;;27.34;32.19;100693.72;4972846;28;20080;-75
2023/10/07 01:47:49;;;;;;;1.55;0.68;;;;;;;27.23;32.61;100682.69;4964089;28;20077;-74
2023/10/07 01:50:18;;;;;;;2.05;1.05;;;;;;;27.17;32.20;100685.56;4967862;28;20042;-75
2023/10/07 01:52:48;;;;;;;0.60;0.50;;;;;;;27.09;32.70;100680.56;4952591;28;20055;-75
2023/10/07 01:55:19;;;;;;;1.77;0.63;;;;;;;27.03;33.17;100686.13;4967617;28;20050;-74
2023/10/07 01:57:50;;;;;;;1.25;0.70;;;;;;;26.94;33.25;100676.75;4960887;28;20039;-74
2023/10/07 02:00:40;;;;;;;1.75;0.60;;;;;;;26.88;32.92;100682.28;4968461;28;20076;-73
2023/10/07 02:03:13;;;;;;;2.75;0.75;;;;;;;26.79;32.88;100679.13;4954801;28;20051;-73
2023/10/07 02:05:47;;;;;;;1.90;0.68;;;;;;;26.73;33.34;100672.25;4963871;28;20142;-73
2023/10/07 02:08:18;;;;;;;2.42;0.50;;;;;;;26.67;33.19;100675.16;4965047;28;20137;-72
2023/10/07 02:10:52;;;;;;;1.80;0.90;;;;;;;26.60;33.26;100681.63;4963229;28;20118;-74
2023/10/07 02:13:20;;;;;;;;;;;;;;;26.56;33.23;100677.38;4965154;28;20050;-75
2023/10/07 02:15:51;;;;;;;2.35;0.50;;;;;;;26.47;32.90;100682.06;4970765;28;19984;-74
2023/10/07 02:18:20;;;;;;;2.70;0.82;;;;;;;26.42;33.26;100686.69;4962119;28;20047;-76
2023/10/07 02:20:52;;;;;;;0.70;0.60;;;;;;;26.38;33.78;100684.19;4965746;28;20051;-78
2023/10/07 02:23:37;;;;;;;1.35;0.50;;;;;;;26.32;33.48;100682.66;4961668;28;20077;-78
2023/10/07 02:26:14;;;;;;;1.02;0.60;;;;;;;26.26;34.02;100688.16;4964182;28;20146;-76
2023/10/07 02:28:44;;;;;;;1.40;0.60;;;;;;;26.21;33.85;100684.81;4967168;28;20046;-78
2023/10/07 02:31:19;;;;;;;1.48;0.52;;;;;;;26.17;33.93;100685.84;4961508;28;20142;-76
2023/10/07 02:33:58;;;;;;;2.25;0.60;;;;;;;26.11;33.98;100685.16;4968490;28;20054;-79
2023/10/07 02:36:31;;;;;;;1.63;0.60;;;;;;;26.05;34.22;100674.78;4968861;28;20046;-76
2023/10/07 02:39:04;;;;;;;2.88;0.85;;;;;;;26.02;33.85;100680.19;4959805;28;20151;-76
2023/10/07 02:41:48;;;;;;;3.38;0.77;;;;;;;25.98;34.62;100681.22;4961435;28;20051;-76
2023/10/07 02:44:27;;;;;;;1.35;0.60;;;;;;;25.92;34.24;100673.47;4969452;28;20054;-76
2023/10/07 02:46:57;;;;;;;0.90;0.60;;;;;;;25.86;34.31;100673.66;4965191;28;20119;-76
2023/10/07 02:49:26;;;;;;;1.17;0.60;;;;;;;25.82;34.56;100674.69;4962227;28;20118;-78
2023/10/07 02:51:58;;;;;;;4.88;0.70;;;;;;;25.76;34.28;100669.59;4965611;28;20164;-78
2023/10/07 02:54:32;;;;;;;1.63;0.60;;;;;;;25.71;34.51;100675.91;4962222;28;20061;-76
2023/10/07 02:57:08;;;;;;;2.50;0.90;;;;;;;25.66;34.91;100671.72;4961361;28;20515;-75
2023/10/07 02:59:44;;;;;;;2.80;1.00;;;;;;;25.61;34.99;100673.63;4962931;28;20082;-77
2023/10/07 03:02:27;;;;;;;2.72;1.00;;;;;;;25.55;34.82;100668.56;4962993;28;20043;-76
2023/10/07 03:05:14;;;;;;;2.25;0.60;;;;;;;25.50;34.79;100676.66;4960522;28;20154;-78
2023/10/07 03:07:49;;;;;;;2.47;0.95;;;;;;;25.45;34.90;100678.63;4962398;28;20171;-77
2023/10/07 03:10:18;;;;;;;0.90;0.70;;;;;;;25.39;35.25;100673.50;4962872;28;20083;-75
2023/10/07 03:12:56;;;;;;;2.00;0.70;;;;;;;25.35;35.14;100672.72;4950596;28;20504;-75
2023/10/07 03:15:39;;;;;;;2.17;0.73;;;;;;;25.29;34.88;100672.97;4963795;28;20047;-75
2023/10/07 03:18:21;;;;;;;2.03;0.60;;;;;;;25.27;35.11;100675.66;4968746;28;20064;-74
2023/10/07 03:21:00;;;;;;;3.80;0.93;;;;;;;25.24;35.34;100675.75;4964801;28;20043;-74
2023/10/07 03:23:33;;;;;;;1.48;0.70;;;;;;;25.19;35.26;100675.00;4963287;28;20315;-77
2023/10/07 03:28:52;;;;;;;1.25;0.80;;;;;;;25.10;35.39;100669.97;4966685;28;20123;-76
2023/10/07 03:31:33;;;;;;;1.15;0.60;;;;;;;25.05;34.91;100670.13;4969670;28;20133;-76
2023/10/07 03:34:07;;;;;;;2.30;0.80;;;;;;;25.01;34.99;100664.97;4966186;28;20053;-77
2023/10/07 03:36:45;;;;;;;1.15;0.60;;;;;;;24.95;35.32;100658.13;4971064;28;20047;-73
2023/10/07 03:39:23;;;;;;;1.30;0.55;;;;;;;24.92;35.51;100665.28;4958642;28;20102;-75
2023/10/07 03:41:55;;;;;;;1.70;0.70;;;;;;;24.85;35.91;100665.50;4967951;28;20058;-75
2023/10/07 03:44:27;;;;;;;1.95;0.60;;;;;;;24.80;36.41;100663.88;4969423;28;20051;-72
2023/10/07 03:46:57;;;;;;;2.47;0.77;;;;;;;24.75;36.68;100660.53;4967927;28;20437;-75
2023/10/07 03:49:33;;;;;;;2.40;0.93;;;;;;;24.62;37.51;100654.72;4962019;28;20043;-75
2023/10/07 03:52:07;;;;;;;1.88;0.80;;;;;;;24.58;37.27;100659.25;4970351;28;20676;-75
2023/10/07 03:54:36;;;;;;;4.03;0.80;;;;;;;24.56;37.86;100660.22;4968911;28;20043;-75
2023/10/07 03:57:08;;;;;;;6.20;0.90;;;;;;;24.54;37.49;100659.41;4971725;28;20130;-75
2023/10/07 03:59:39;;;;;;;2.47;1.58;;;;;;;24.51;37.49;100665.66;4964893;28;20102;-76
2023/10/07 04:02:34;;;;;;;1.25;0.70;;;;;;;24.50;37.23;100665.69;4958774;28;20520;-75
2023/10/07 04:05:10;;;;;;;1.48;0.70;;;;;;;24.46;37.64;100670.16;4966775;28;20086;-74
2023/10/07 04:07:39;;;;;;;2.17;0.60;;;;;;;24.43;37.21;100665.81;4965746;28;20066;-76
2023/10/07 04:10:31;;;;;;;1.35;0.60;;;;;;;24.43;36.90;100671.09;4965826;28;20965;-74
2023/10/07 04:12:59;;;;;;;;;;;;;;;24.40;36.13;100675.63;4961648;28;20066;-75
2023/10/07 04:15:30;;;;;;;1.65;0.70;;;;;;;24.32;36.56;100681.13;4963411;28;19930;-76
2023/10/07 04:18:03;;;;;;;2.03;0.75;;;;;;;24.27;36.90;100684.81;4969618;28;20049;-77
2023/10/07 04:20:56;;;;;;;2.80;0.75;;;;;;;24.20;37.20;100685.00;4969025;28;20043;-75
2023/10/07 04:23:34;;;;;;;1.20;0.70;;;;;;;24.11;37.61;100673.81;4966073;28;20054;-77
2023/10/07 04:26:09;;;;;;;2.22;0.60;;;;;;;24.04;37.32;100679.25;4967405;28;20051;-74
2023/10/07 04:28:39;;;;;;;1.55;0.90;;;;;;;23.95;38.17;100673.38;4971408;28;20047;-74
2023/10/07 04:31:11;;;;;;;1.25;0.70;;;;;;;23.88;39.28;100677.94;4965692;28;20050;-74
2023/10/07 04:33:47;;;;;;;2.92;0.80;;;;;;;23.79;38.88;100678.19;4969421;28;20070;-73
2023/10/07 04:36:33;;;;;;;2.05;0.90;;;;;;;23.73;38.17;100680.97;4964184;28;20054;-75
2023/10/07 04:39:15;;;;;;;2.72;0.95;;;;;;;23.68;38.07;100682.84;4967992;28;20050;-73
2023/10/07 04:41:43;;;;;;;;;;;;;;;23.65;39.04;100682.94;4967037;28;20129;-74
2023/10/07 04:45:00;;;;;;;3.00;1.27;;;;;;;23.64;41.14;100679.44;4969363;28;19930;-73
2023/10/07 04:50:00;;;;;;;2.50;0.57;;;;;;;23.61;41.49;100682.16;4965725;28;20133;-73
2023/10/07 04:52:28;;;;;;;2.13;0.82;;;;;;;23.58;41.64;100677.81;4968928;28;20078;-74
2023/10/07 04:54:58;;;;;;;2.40;1.20;;;;;;;23.49;40.55;100678.03;4969070;28;20052;-74
2023/10/07 04:57:44;;;;;;;6.00;1.67;;;;;;;23.39;39.56;100677.41;4971777;28;20054;-74
2023/10/07 05:00:27;;;;;;;3.35;0.85;;;;;;;23.36;40.85;100673.97;4974241;28;20050;-73
2023/10/07 05:02:58;;;;;;;2.67;1.00;;;;;;;23.31;42.35;100681.16;4972891;28;20129;-75
2023/10/07 05:05:29;;;;;;;2.83;0.82;;;;;;;23.27;44.48;100685.63;4965659;28;20519;-76
2023/10/07 05:07:58;;;;;;;1.48;0.80;;;;;;;23.17;44.76;100679.69;4969876;28;20066;-75
2023/10/07 05:10:29;;;;;;;1.77;0.77;;;;;;;23.10;42.08;100683.41;4967926;28;20046;-72
2023/10/07 05:13:01;;;;;;;3.22;1.02;;;;;;;23.03;43.17;100686.22;4969038;28;20488;-75
2023/10/07 05:15:31;;;;;;;1.40;0.80;;;;;;;22.97;43.10;100684.53;4967622;28;20050;-74
2023/10/07 05:18:01;;;;;;;2.50;0.73;;;;;;;22.93;43.24;100685.50;4964777;28;20051;-74
2023/10/07 05:20:32;;;;;;;2.10;0.77;;;;;;;22.91;42.05;100687.34;4974962;28;20096;-74
2023/10/07 05:23:04;;;;;;;5.43;0.90;;;;;;;22.86;44.81;100681.28;4963182;28;20054;-75
2023/10/07 05:25:35;;;;;;;3.83;0.98;;;;;;;22.78;43.57;100682.31;4969128;28;20051;-74
2023/10/07 05:28:10;;;;;;;3.63;0.75;;;;;;;22.77;43.32;100680.59;4968890;28;20082;-74
2023/10/07 05:30:41;;;;;;;2.67;0.90;;;;;;;22.76;43.48;100683.25;4965818;28;20054;-74
2023/10/07 05:33:11;;;;;;;2.20;0.90;;;;;;;22.73;40.40;100678.91;4970724;28;20047;-74
2023/10/07 05:35:40;;;;;;;5.82;1.15;;;;;;;22.70;42.28;100664.91;4970850;28;20062;-75
2023/10/07 05:38:10;;;;;;;3.50;1.02;;;;;;;22.71;43.36;100675.44;4967137;28;20068;-73
2023/10/07 05:40:38;;;;;;;5.88;0.90;;;;;;;22.68;40.80;100677.31;4965338;28;20163;-74
2023/10/07 05:43:08;;;;;;;1.75;1.00;;;;;;;22.66;41.98;100674.69;4973855;28;20078;-74
2023/10/07 05:45:40;;;;;;;4.45;0.80;;;;;;;22.64;43.31;100668.56;4971291;28;20073;-73
2023/10/07 05:48:10;;;;;;;5.20;1.40;;;;;;;22.60;42.82;100674.81;4965199;28;20050;-74
2023/10/07 05:50:39;;;;;;;2.22;1.00;;;;;;;22.56;42.77;100670.50;4969487;28;20078;-73
2023/10/07 05:53:09;;;;;;;3.80;0.90;;;;;;;22.53;41.04;100674.06;4965926;28;20047;-73
2023/10/07 05:55:39;;;;;;;2.80;0.85;;;;;;;22.48;41.97;100672.44;4963877;28;20086;-73
2023/10/07 05:58:07;;;;;;;5.20;0.88;;;;;;;22.49;41.35;100679.44;4966946;28;20150;-75
2023/10/07 06:00:36;;;;;;;1.48;0.80;;;;;;;22.45;41.94;100685.66;4971184;28;20066;-74
2023/10/07 06:03:08;;;;;;;1.73;0.80;;;;;;;22.37;43.04;100676.16;4969597;28;20127;-75
2023/10/07 06:05:43;;;;;;;;;;;;;;;22.33;42.46;100679.78;4966520;28;20102;-71
2023/10/07 06:08:12;;;;;;;3.55;0.70;;;;;;;22.27;41.85;100679.03;4962740;28;19945;-73
2023/10/07 06:10:40;;;;;;;4.25;0.98;;;;;;;22.20;45.01;100680.88;4972293;28;20047;-72
2023/10/07 06:13:09;;;;;;;6.68;1.08;;;;;;;22.14;47.23;100681.00;4964950;28;20079;-72
2023/10/07 06:15:47;;;;;;;0.95;0.60;;;;;;;22.06;45.60;100677.63;4968267;28;20216;-72
2023/10/07 06:18:18;;;;;;;2.83;0.88;;;;;;;22.08;44.87;100678.47;4963010;28;20087;-71
2023/10/07 06:20:51;;;;;;;3.03;0.95;;;;;;;22.11;43.72;100678.44;4972001;28;20050;-72
2023/10/07 06:23:20;;;;;;;0.98;0.60;;;;;;;22.13;42.50;100672.22;4964788;28;20046;-71
2023/10/07 06:25:50;;;;;;;2.85;0.93;;;;;;;22.14;42.03;100667.81;4968161;28;20058;-72
2023/10/07 06:28:29;;;;;;;1.60;0.63;;;;;;;22.14;40.90;100673.09;4967658;28;20748;-71
2023/10/07 06:31:10;;;;;;;3.75;0.70;;;;;;;22.09;44.60;100670.53;4963648;28;20058;-74
2023/10/07 06:33:40;;;;;;;2.22;0.80;;;;;;;22.02;45.25;100673.34;4964823;28;20137;-72
2023/10/07 06:36:14;;;;;;;5.75;0.93;;;;;;;22.00;44.49;100672.50;4965132;28;20051;-73
2023/10/07 06:38:52;;;;;;;6.90;1.10;;;;;;;21.96;45.77;100664.63;4968001;28;20055;-73
2023/10/07 06:41:21;;;;;;;4.75;1.00;;;;;;;21.92;48.08;100672.63;4963070;28;20408;-72
2023/10/07 06:43:51;;;;;;;4.20;0.93;;;;;;;21.87;47.13;100670.06;4966728;28;20062;-73
2023/10/07 06:46:22;;;;;;;5.85;1.08;;;;;;;21.80;49.26;100668.44;4961074;28;20050;-72
2023/10/07 06:48:51;;;;;;;3.05;1.05;;;;;;;21.72;46.24;100663.34;4967916;28;20567;-72
2023/10/07 06:51:23;;;;;;;3.22;0.70;;;;;;;21.70;43.97;100661.63;4964788;28;20058;-72
2023/10/07 06:53:52;;;;;;;3.08;0.70;;;;;;;21.66;42.21;100673.09;4965851;28;20057;-71
2023/10/07 06:56:22;;;;;;;2.05;0.68;;;;;;;21.63;42.35;100666.13;4969024;28;20057;-72
2023/10/07 06:58:54;;;;;;;2.92;0.80;;;;;;;21.56;43.12;100671.53;4972192;28;20047;-74
2023/10/07 07:01:51;;;;;;;3.28;0.77;;;;;;;21.47;42.56;100673.41;4977610;28;20067;-74
2023/10/07 07:04:23;;;;;;;1.65;0.98;;;;;;;21.42;43.35;100667.38;4970021;28;20082;-74
2023/10/07 07:07:11;;;;;;;4.88;0.70;;;;;;;21.36;43.28;100661.31;4969348;28;20145;-75
2023/10/07 07:09:42;;;;;;;1.50;0.70;;;;;;;21.31;42.99;100664.00;4969665;28;20050;-75
2023/10/07 07:12:12;;;;;;;3.33;0.80;;;;;;;21.26;44.34;100660.59;4973322;28;20047;-74
2023/10/07 07:14:46;;;;;;;2.88;0.88;;;;;;;21.21;43.33;100662.41;4972425;28;20126;-73
2023/10/07 07:23:10;;;;;;;1.80;0.60;;;;;;;21.06;41.96;100660.91;4906882;29;20099;-74
2023/10/07 07:25:39;;;;;;;1.83;0.75;;;;;;;20.98;42.43;100647.88;4949197;28;20058;-75
2023/10/07 07:28:10;;;;;;;3.13;0.73;;;;;;;20.95;43.04;100657.56;4971251;28;20074;-74
2023/10/07 07:30:38;;;;;;;0.90;0.60;;;;;;;20.94;42.19;100659.31;4972059;28;20058;-75
2023/10/07 07:33:08;;;;;;;1.27;0.60;;;;;;;20.91;42.18;100670.75;4970054;28;20540;-74
2023/10/07 07:35:41;;;;;;;0.90;0.57;;;;;;;20.88;43.15;100659.41;4967214;28;20054;-73
2023/10/07 07:38:20;;;;;;;2.10;0.50;;;;;;;20.79;44.29;100657.78;4966616;28;20050;-74
2023/10/07 07:40:49;;;;;;;1.85;0.70;;;;;;;20.75;44.44;100661.31;4970617;28;20113;-74
2023/10/07 07:43:19;;;;;;;0.85;0.50;;;;;;;20.68;43.88;100660.56;4967887;28;20055;-73
2023/10/07 07:45:56;;;;;;;1.17;0.63;;;;;;;20.58;44.27;100665.97;4960168;28;20054;-74
2023/10/07 07:48:26;;;;;;;1.20;0.55;;;;;;;20.52;43.40;100658.97;4970133;28;20055;-73
2023/10/07 07:50:56;;;;;;;1.30;0.50;;;;;;;20.51;44.19;100662.50;4973757;28;20531;-73
2023/10/07 07:53:26;;;;;;;1.00;0.63;;;;;;;20.47;44.05;100660.81;4967032;28;20055;-74
2023/10/07 07:55:56;;;;;;;1.13;0.60;;;;;;;20.45;43.65;100662.56;4962676;28;20517;-74
2023/10/07 07:58:25;;;;;;;2.45;0.65;;;;;;;20.46;43.48;100662.56;4969945;28;20057;-73
2023/10/07 08:01:04;;;;;;;2.08;0.65;;;;;;;20.46;43.98;100661.69;4963613;28;20146;-73
2023/10/07 08:03:35;;;;;;;3.72;0.70;;;;;;;20.44;43.52;100669.59;4969335;28;20050;-73
2023/10/07 08:06:11;;;;;;;1.38;0.63;;;;;;;20.37;44.58;100670.56;4967245;28;20051;-72
2023/10/07 08:08:42;;;;;;;1.42;0.63;;;;;;;20.36;44.38;100665.31;4971079;28;20076;-74
2023/10/07 08:11:14;;;;;;;2.08;0.75;;;;;;;20.32;44.56;100672.38;4967695;28;20529;-76
2023/10/07 08:13:44;;;;;;;1.13;0.50;;;;;;;20.27;44.73;100667.19;4973643;28;20104;-71
2023/10/07 08:16:17;;;;;;;2.47;0.80;;;;;;;20.21;44.82;100667.25;4968168;28;20073;-74
2023/10/07 08:18:48;;;;;;;1.75;0.63;;;;;;;20.18;44.69;100667.28;4971465;28;20050;-73
2023/10/07 08:21:17;;;;;;;2.70;1.00;;;;;;;20.15;45.64;100664.69;4968387;28;20133;-74
2023/10/07 08:23:51;;;;;;;1.40;0.70;;;;;;;20.13;47.09;100663.81;4968470;28;20043;-74
2023/10/07 08:26:23;;;;;;;2.17;0.70;;;;;;;20.09;47.79;100664.78;4969052;28;20075;-73
2023/10/07 08:29:00;;;;;;;1.13;0.68;;;;;;;20.08;47.19;100665.66;4970519;28;20062;-75
2023/10/07 08:34:15;;;;;;;2.17;0.70;;;;;;;20.02;48.52;100661.34;4965833;28;20054;-74
2023/10/07 08:36:47;;;;;;;1.20;0.75;;;;;;;20.00;48.35;100657.88;4968554;28;20109;-73
2023/10/07 08:39:25;;;;;;;3.47;0.88;;;;;;;19.99;48.85;100663.13;4971017;28;20404;-74
2023/10/07 08:41:58;;;;;;;4.22;0.90;;;;;;;19.97;49.56;100654.38;4975022;28;20186;-74
2023/10/07 08:44:31;;;;;;;1.30;0.75;;;;;;;19.96;49.57;100660.53;4967647;28;20069;-73
2023/10/07 08:47:05;;;;;;;5.25;0.77;;;;;;;19.94;49.05;100660.53;4967593;28;20390;-72
2023/10/07 08:49:36;;;;;;;2.67;0.60;;;;;;;19.91;47.69;100662.34;4964704;28;20046;-72
2023/10/07 08:52:08;;;;;;;3.13;0.77;;;;;;;19.88;50.09;100658.88;4969577;28;20506;-73
2023/10/07 08:54:44;;;;;;;5.63;0.80;;;;;;;19.85;49.48;100658.88;4970280;28;20122;-73
2023/10/07 08:57:19;;;;;;;2.15;0.80;;;;;;;19.84;47.18;100662.41;4969899;28;20539;-73
2023/10/07 08:59:49;;;;;;;1.83;0.68;;;;;;;19.83;45.93;100655.38;4963670;28;20047;-73
2023/10/07 09:02:26;;;;;;;2.83;0.70;;;;;;;19.82;46.91;100648.41;4973809;28;20477;-73
2023/10/07 09:04:56;;;;;;;1.20;0.68;;;;;;;19.80;46.42;100654.56;4968776;28;20059;-73
2023/10/07 09:07:30;;;;;;;2.28;0.55;;;;;;;19.77;47.10;100652.84;4971431;28;20042;-75
2023/10/07 09:10:13;;;;;;;2.17;0.90;;;;;;;19.74;47.13;100650.22;4968786;28;20043;-73
2023/10/07 09:12:49;;;;;;;2.42;0.65;;;;;;;19.74;46.17;100650.22;4965252;28;20054;-72
2023/10/07 09:15:25;;;;;;;2.05;0.70;;;;;;;19.68;46.96;100642.41;4967383;28;20062;-73
2023/10/07 09:18:03;;;;;;;2.03;0.70;;;;;;;19.67;47.21;100646.75;4963182;28;20063;-74
2023/10/07 09:20:32;;;;;;;0.90;0.60;;;;;;;19.60;46.85;100652.97;4971330;28;20106;-73
2023/10/07 09:23:06;;;;;;;2.22;0.80;;;;;;;19.53;47.00;100643.41;4965728;28;20646;-72
2023/10/07 09:25:38;;;;;;;1.17;0.70;;;;;;;19.51;46.86;100641.69;4966873;28;20155;-73
2023/10/07 09:28:08;;;;;;;2.27;0.70;;;;;;;19.40;46.61;100634.78;4968962;28;20051;-73
2023/10/07 09:30:44;;;;;;;2.30;0.60;;;;;;;19.46;47.13;100650.47;4966138;28;20059;-73
2023/10/07 09:33:14;;;;;;;1.17;0.63;;;;;;;19.43;47.08;100647.88;4971131;28;20157;-74
2023/10/07 09:35:46;;;;;;;1.80;0.70;;;;;;;19.43;48.59;100655.75;4969358;28;20099;-73
2023/10/07 09:38:28;;;;;;;1.00;0.60;;;;;;;19.40;48.52;100661.03;4969023;28;20078;-74
2023/10/07 09:41:12;;;;;;;2.30;0.70;;;;;;;19.37;47.13;100650.53;4967042;28;20061;-73
2023/10/07 09:43:47;;;;;;;1.30;0.60;;;;;;;19.36;47.85;100654.06;4966634;28;20118;-73
2023/10/07 09:46:24;;;;;;;2.03;0.73;;;;;;;19.30;49.02;100648.84;4965326;28;20058;-73
2023/10/07 09:48:57;;;;;;;2.13;0.70;;;;;;;19.32;49.45;100657.59;4967113;28;20161;-73
2023/10/07 09:51:28;;;;;;;1.80;0.68;;;;;;;19.30;49.71;100648.00;4966219;28;20055;-72
2023/10/07 09:54:22;;;;;;;1.33;0.70;;;;;;;19.21;49.28;100649.78;4971127;28;20053;-73
2023/10/07 09:57:19;;;;;;;1.95;0.70;;;;;;;19.16;49.39;100645.47;4961718;28;20161;-73
2023/10/07 10:00:26;;;;;;;3.10;0.93;;;;;;;19.13;49.01;100648.13;4966210;28;20074;-73
2023/10/07 10:03:04;;;;;;;5.72;0.80;;;;;;;19.10;50.15;100649.00;4967101;28;20109;-73
2023/10/07 10:05:47;;;;;;;1.25;0.63;;;;;;;19.06;50.70;100649.94;4969600;28;20047;-72
2023/10/07 10:08:44;;;;;;;1.88;0.70;;;;;;;19.04;49.52;100644.69;4968725;28;20157;-73
2023/10/07 10:14:16;;;;;;;2.40;0.82;;;;;;;18.98;49.05;100642.09;4967337;28;20256;-73
2023/10/07 10:16:45;;;;;;;2.65;0.63;;;;;;;18.92;48.34;100631.66;4966212;28;20082;-72
2023/10/07 10:19:21;;;;;;;2.85;0.50;;;;;;;18.92;49.54;100633.41;4966785;28;20051;-73
2023/10/07 10:21:50;;;;;;;1.42;0.50;;;;;;;18.90;48.97;100640.41;4967011;28;20089;-73
2023/10/07 10:24:24;;;;;;;1.92;0.70;;;;;;;18.89;49.26;100636.06;4964881;28;20046;-74
2023/10/07 10:27:04;;;;;;;1.75;0.60;;;;;;;18.86;49.20;100631.69;4967878;28;20564;-72
2023/10/07 10:29:37;;;;;;;4.35;0.75;;;;;;;18.86;49.70;100636.94;4967058;28;20039;-73
2023/10/07 10:32:16;;;;;;;0.73;0.55;;;;;;;18.80;49.38;100627.34;4964245;28;20083;-74
2023/10/07 10:34:45;;;;;;;1.25;0.52;;;;;;;18.79;48.65;100635.25;4965733;28;20054;-73
2023/10/07 10:37:15;;;;;;;3.30;1.25;;;;;;;18.80;49.72;100631.72;4966632;28;20122;-74
2023/10/07 10:39:44;;;;;;;2.25;0.70;;;;;;;18.80;49.35;100631.72;4965586;28;20142;-74
2023/10/07 10:42:13;;;;;;;0.68;0.50;;;;;;;18.78;49.71;100629.13;4966701;28;20567;-73
2023/10/07 10:44:48;;;;;;;0.95;0.60;;;;;;;18.76;49.36;100625.63;4966517;28;20062;-72
2023/10/07 10:47:18;;;;;;;2.30;0.68;;;;;;;18.73;49.83;100623.00;4973712;28;20057;-73
2023/10/07 10:49:47;;;;;;;1.75;0.43;;;;;;;18.72;50.58;100617.78;4955813;28;20051;-74
2023/10/07 10:52:18;;;;;;;1.15;0.75;;;;;;;18.66;50.76;100623.91;4964046;28;20104;-73
2023/10/07 10:54:46;;;;;;;1.45;0.60;;;;;;;18.61;50.34;100623.09;4967401;28;20057;-73
2023/10/07 10:57:19;;;;;;;3.67;0.90;;;;;;;18.59;50.54;100630.94;4962770;28;20058;-73
2023/10/07 10:59:50;;;;;;;;;;;;;;;18.59;52.19;100622.22;4969041;28;20063;-73
2023/10/07 11:02:22;;;;;;;2.58;0.70;;;;;;;18.59;52.22;100633.56;4966719;28;19937;-73
2023/10/07 11:04:53;;;;;;;1.90;0.80;;;;;;;18.55;51.33;100617.88;4966722;28;20142;-73
2023/10/07 11:07:23;;;;;;;1.73;0.80;;;;;;;18.46;52.13;100615.28;4965089;28;20077;-74
2023/10/07 11:09:53;;;;;;;3.97;0.82;;;;;;;18.43;52.72;100618.81;4966662;28;20383;-73
2023/10/07 11:12:26;;;;;;;1.90;0.77;;;;;;;18.40;52.05;100613.59;4963401;28;21049;-73
2023/10/07 11:15:07;;;;;;;1.80;0.85;;;;;;;18.37;52.32;100613.59;4965069;28;20113;-73
2023/10/07 11:17:41;;;;;;;3.83;0.90;;;;;;;18.32;52.53;100612.75;4968182;28;20311;-74
2023/10/07 11:20:13;;;;;;;1.25;0.73;;;;;;;18.28;52.34;100611.00;4968635;28;20070;-74
2023/10/07 11:22:42;;;;;;;2.17;0.85;;;;;;;18.23;52.85;100618.88;4972021;28;20156;-73
2023/10/07 11:25:14;;;;;;;1.10;0.70;;;;;;;18.19;53.53;100622.41;4966488;28;20046;-72
2023/10/07 11:27:42;;;;;;;;;;;;;;;18.09;54.13;100632.03;4971614;28;20577;-73
2023/10/07 11:30:14;;;;;;;1.48;0.73;;;;;;;18.07;55.26;100625.94;4968177;28;19926;-72
2023/10/07 11:32:45;;;;;;;3.97;1.20;;;;;;;18.04;54.14;100625.94;4964310;28;20050;-73
2023/10/07 11:35:21;;;;;;;2.38;0.77;;;;;;;18.01;54.64;100625.97;4968789;28;20057;-73
2023/10/07 11:37:57;;;;;;;1.00;0.70;;;;;;;18.00;55.04;100632.97;4964055;28;20121;-73
2023/10/07 11:40:25;;;;;;;2.33;0.80;;;;;;;17.99;54.93;100628.59;4967787;28;20085;-72
2023/10/07 11:42:56;;;;;;;1.33;0.90;;;;;;;17.94;55.10;100616.41;4967041;28;20113;-71
2023/10/07 11:45:27;;;;;;;3.83;1.05;;;;;;;17.99;55.14;100627.72;4970328;28;20541;-73
2023/10/07 11:47:57;;;;;;;1.42;0.77;;;;;;;17.96;55.40;100617.28;4971994;28;20054;-72
2023/10/07 11:50:27;;;;;;;2.13;0.68;;;;;;;17.93;55.99;100619.88;4965896;28;20604;-73
2023/10/07 11:52:56;;;;;;;1.40;0.70;;;;;;;17.90;56.07;100632.97;4970033;28;20047;-73
2023/10/07 11:55:27;;;;;;;3.05;0.70;;;;;;;17.85;56.49;100634.75;4968900;28;20050;-73
2023/10/07 11:57:56;;;;;;;1.83;0.90;;;;;;;17.79;56.25;100630.34;4972856;28;20400;-74
2023/10/07 12:00:31;;;;;;;2.20;0.70;;;;;;;17.73;57.88;100640.81;4968651;28;20054;-74
2023/10/07 12:03:00;;;;;;;3.05;0.82;;;;;;;17.67;57.85;100639.09;4974300;28;20061;-74
2023/10/07 12:05:30;;;;;;;1.58;0.80;;;;;;;17.64;57.53;100636.50;4969532;28;20165;-72
2023/10/07 12:08:01;;;;;;;5.93;0.88;;;;;;;17.63;57.67;100637.34;4966957;28;20051;-73
2023/10/07 12:10:30;;;;;;;3.72;0.70;;;;;;;17.61;57.97;100633.84;4966596;28;20492;-73
2023/10/07 12:12:59;;;;;;;2.00;0.70;;;;;;;17.57;57.55;100632.16;4968357;28;20133;-73
2023/10/07 12:15:29;;;;;;;2.33;0.60;;;;;;;17.55;58.46;100628.66;4967777;28;20132;-75